Time;durP1;ratioP1;P1;durP2;ratioP2;P2;SDS_P1;SDS_P2;PMS_P1;PMS_P2;Temp;Humidity;BMP_temperature;BMP_pressure;BME280_temperature;BME280_humidity;BME280_pressure;Samples;Min_cycle;Max_cycle;Signal;HPM_P1;HPM_P2
2023/01/27 00:00:46;;;;;;;24.00;12.00;;;3.40;99.90;;;;;;4899385;29;20045;-84
2023/01/27 00:03:12;;;;;;;25.73;10.53;;;3.40;99.90;;;;;;4883120;29;20096;-84
2023/01/27 00:05:39;;;;;;;23.03;11.20;;;3.40;99.90;;;;;;4898540;29;20108;-84
2023/01/27 00:08:04;;;;;;;24.67;11.83;;;3.40;99.90;;;;;;4881762;29;20092;-84
2023/01/27 00:10:30;;;;;;;24.87;13.17;;;4.00;99.90;;;;;;4882891;29;20044;-84
2023/01/27 00:15:40;;;;;;;22.50;12.27;;;3.50;99.90;;;;;;4898896;29;20532;-84
2023/01/27 00:18:06;;;;;;;26.47;13.80;;;3.50;99.90;;;;;;4901334;29;20049;-84
2023/01/27 00:26:09;;;;;;;24.43;13.10;;;3.50;99.90;;;;;;4884693;29;20056;-84
2023/01/27 00:28:36;;;;;;;26.00;13.63;;;3.50;99.90;;;;;;4899675;29;20048;-84
2023/01/27 00:31:02;;;;;;;25.13;13.43;;;3.50;99.90;;;;;;4900058;29;20053;-84
2023/01/27 00:33:28;;;;;;;26.83;12.43;;;3.50;99.90;;;;;;4882473;29;20434;-84
2023/01/27 00:36:00;;;;;;;23.23;11.93;;;3.50;99.90;;;;;;4881964;29;20056;-84
2023/01/27 00:38:30;;;;;;;19.90;11.13;;;3.50;99.90;;;;;;4885835;29;20144;-84
2023/01/27 00:41:18;;;;;;;22.90;10.60;;;3.50;99.90;;;;;;4897796;29;20145;-84
2023/01/27 00:43:48;;;;;;;19.60;10.57;;;3.50;99.90;;;;;;4898477;29;20127;-84
2023/01/27 00:46:16;;;;;;;21.03;10.47;;;3.40;99.90;;;;;;4902561;29;20072;-84
2023/01/27 00:48:41;;;;;;;18.97;9.43;;;3.50;99.90;;;;;;4882484;29;20059;-84
2023/01/27 00:51:07;;;;;;;17.63;9.33;;;3.40;99.90;;;;;;4898261;29;20044;-84
2023/01/27 00:53:33;;;;;;;17.10;9.10;;;3.50;99.90;;;;;;4898971;29;20091;-84
2023/01/27 00:55:59;;;;;;;18.43;8.73;;;3.50;99.90;;;;;;4898605;29;20072;-84
2023/01/27 00:58:25;;;;;;;18.40;8.97;;;3.50;99.90;;;;;;4881384;29;20055;-84
2023/01/27 01:00:59;;;;;;;20.47;8.30;;;3.50;99.90;;;;;;4881965;29;20056;-84
2023/01/27 01:03:26;;;;;;;18.48;9.30;;;3.50;99.90;;;;;;4898197;29;20092;-84
2023/01/27 01:05:51;;;;;;;16.90;8.90;;;3.50;99.90;;;;;;4881454;29;20064;-84
2023/01/27 01:08:17;;;;;;;17.30;8.97;;;3.50;99.90;;;;;;4898875;29;20044;-84
2023/01/27 01:10:44;;;;;;;18.20;8.90;;;4.70;99.90;;;;;;4881122;29;20047;-84
2023/01/27 01:13:13;;;;;;;17.13;8.60;;;3.50;99.90;;;;;;4881595;29;20056;-84
2023/01/27 01:15:40;;;;;;;15.50;8.37;;;3.50;99.90;;;;;;4897534;29;20379;-84
2023/01/27 01:18:07;;;;;;;15.90;8.40;;;3.50;99.90;;;;;;4896528;29;20049;-84
2023/01/27 01:20:38;;;;;;;16.67;8.80;;;3.50;99.90;;;;;;4881917;29;20088;-85
2023/01/27 01:23:05;;;;;;;19.10;8.53;;;3.60;99.90;;;;;;4881161;29;20056;-84
2023/01/27 01:25:31;;;;;;;16.50;8.00;;;3.60;99.90;;;;;;4897779;29;20044;-84
2023/01/27 01:27:56;;;;;;;18.13;8.43;;;3.50;99.90;;;;;;4881647;29;20392;-84
2023/01/27 01:30:25;;;;;;;17.93;8.53;;;3.50;99.90;;;;;;4898185;29;20497;-84
2023/01/27 01:32:51;;;;;;;18.00;8.80;;;3.50;99.90;;;;;;4897392;29;20048;-85
2023/01/27 01:35:17;;;;;;;17.97;8.40;;;3.50;99.90;;;;;;4897063;29;20059;-84
2023/01/27 01:37:43;;;;;;;16.43;8.30;;;3.50;99.90;;;;;;4881629;29;20131;-84
2023/01/27 01:40:11;;;;;;;15.37;7.90;;;3.50;99.90;;;;;;4880507;29;20037;-84
2023/01/27 01:42:49;;;;;;;16.27;8.07;;;3.60;99.90;;;;;;4897123;29;20056;-84
2023/01/27 01:45:35;;;;;;;19.40;7.83;;;3.60;99.90;;;;;;4898219;29;20059;-84
2023/01/27 01:48:27;;;;;;;16.07;7.63;;;3.60;99.90;;;;;;4897877;29;20102;-84
2023/01/27 01:51:03;;;;;;;15.40;7.70;;;3.50;99.90;;;;;;4848535;29;20056;-84
2023/01/27 01:53:52;;;;;;;15.17;7.50;;;4.00;99.90;;;;;;4880753;29;20409;-84
2023/01/27 01:56:23;;;;;;;14.50;6.80;;;3.60;99.90;;;;;;4881477;29;20449;-84
2023/01/27 01:58:50;;;;;;;16.37;7.80;;;3.60;99.90;;;;;;4897450;29;20042;-84
2023/01/27 02:01:17;;;;;;;13.47;6.70;;;3.60;99.90;;;;;;4897321;29;20091;-84
2023/01/27 02:03:49;;;;;;;14.63;6.70;;;3.50;99.90;;;;;;4897451;29;20409;-84
2023/01/27 02:06:15;;;;;;;13.53;6.70;;;3.50;99.90;;;;;;4880751;29;20470;-84
2023/01/27 02:08:45;;;;;;;14.20;6.83;;;4.70;99.90;;;;;;4896791;29;20089;-84
2023/01/27 02:11:11;;;;;;;13.63;6.43;;;3.50;99.90;;;;;;4897743;29;20072;-85
2023/01/27 02:13:38;;;;;;;13.83;5.67;;;4.40;99.90;;;;;;4903684;29;20059;-84
2023/01/27 02:16:04;;;;;;;13.80;6.40;;;3.50;99.90;;;;;;4880860;29;20055;-84
2023/01/27 02:18:30;;;;;;;12.33;5.93;;;3.50;99.90;;;;;;4881818;29;20490;-84
2023/01/27 02:20:56;;;;;;;15.00;6.43;;;3.50;99.90;;;;;;4883299;29;20092;-84
2023/01/27 02:23:35;;;;;;;12.40;5.80;;;3.50;99.90;;;;;;4881655;29;20052;-84
2023/01/27 02:26:23;;;;;;;12.40;5.97;;;3.50;99.90;;;;;;4880965;29;20049;-84
2023/01/27 02:28:57;;;;;;;14.77;5.57;;;3.50;99.90;;;;;;4880035;29;20128;-84
2023/01/27 02:31:23;;;;;;;13.53;5.60;;;3.50;99.90;;;;;;4897771;29;20096;-84
2023/01/27 02:33:52;;;;;;;12.10;5.50;;;3.50;99.90;;;;;;4880580;29;20044;-84
2023/01/27 02:36:17;;;;;;;13.33;5.77;;;3.50;99.90;;;;;;4880159;29;20056;-84
2023/01/27 02:38:47;;;;;;;13.73;5.40;;;3.50;99.90;;;;;;4897604;29;20134;-84
2023/01/27 02:41:30;;;;;;;11.93;5.30;;;3.50;99.90;;;;;;4880712;29;20052;-84
2023/01/27 02:43:56;;;;;;;11.85;5.65;;;3.50;99.90;;;;;;4897086;29;20445;-84
2023/01/27 02:46:22;;;;;;;13.20;5.10;;;3.50;99.90;;;;;;4880634;29;20123;-84
2023/01/27 02:48:48;;;;;;;11.93;5.30;;;3.50;99.90;;;;;;4880261;29;20408;-84
2023/01/27 02:51:13;;;;;;;11.60;5.27;;;4.00;99.90;;;;;;4897478;29;20040;-84
2023/01/27 02:53:39;;;;;;;11.60;5.40;;;3.50;99.90;;;;;;4880659;29;20512;-84
2023/01/27 02:56:06;;;;;;;12.37;5.10;;;3.50;99.90;;;;;;4896769;29;20576;-84
2023/01/27 02:58:31;;;;;;;12.10;4.83;;;3.50;99.90;;;;;;4899347;23;20047;-84
2023/01/27 03:00:57;;;;;;;11.30;4.80;;;3.50;99.90;;;;;;4917614;29;20051;-84
2023/01/27 03:03:22;;;;;;;11.47;4.70;;;3.50;99.90;;;;;;4934647;29;20392;-84
2023/01/27 03:05:49;;;;;;;11.83;4.80;;;3.50;99.90;;;;;;4917686;29;20039;-84
2023/01/27 03:08:16;;;;;;;13.00;4.73;;;3.50;99.90;;;;;;4917916;29;20055;-84
2023/01/27 03:10:41;;;;;;;10.50;4.30;;;3.50;99.90;;;;;;4917437;29;20143;-84
2023/01/27 03:13:07;;;;;;;11.57;4.30;;;3.60;99.90;;;;;;4917637;29;20170;-84
2023/01/27 03:18:16;;;;;;;;;;;3.50;99.90;;;;;;4918746;29;20111;-84
2023/01/27 03:20:47;;;;;;;11.33;4.50;;;3.50;99.90;;;;;;4921513;29;20426;-84
2023/01/27 03:23:18;;;;;;;11.33;3.90;;;4.90;99.90;;;;;;4934967;29;20067;-83
2023/01/27 03:25:45;;;;;;;9.37;3.90;;;3.60;99.90;;;;;;4955382;29;20019;-84
2023/01/27 03:28:12;;;;;;;12.00;4.00;;;3.50;99.90;;;;;;4942066;29;20043;-83
2023/01/27 03:30:38;;;;;;;8.97;3.83;;;3.80;99.90;;;;;;4922831;29;20039;-84
2023/01/27 03:33:06;;;;;;;12.73;3.67;;;3.50;99.90;;;;;;4920352;29;20048;-84
2023/01/27 03:35:37;;;;;;;11.37;3.90;;;3.60;99.90;;;;;;4921306;29;20159;-84
2023/01/27 03:46:21;;;;;;;9.82;4.13;;;3.60;99.90;;;;;;4937542;29;20445;-84
2023/01/27 03:48:53;;;;;;;8.40;3.67;;;3.70;99.90;;;;;;4920567;29;20552;-84
2023/01/27 03:51:24;;;;;;;8.20;3.80;;;3.60;99.90;;;;;;4927663;29;20134;-84
2023/01/27 03:53:49;;;;;;;9.67;3.53;;;3.60;99.90;;;;;;4919763;29;20121;-84
2023/01/27 03:56:17;;;;;;;8.33;3.40;;;3.60;99.90;;;;;;4920970;29;20052;-85
2023/01/27 03:58:43;;;;;;;9.37;3.50;;;3.60;99.90;;;;;;4942364;29;20115;-84
2023/01/27 04:01:20;;;;;;;8.97;3.50;;;4.90;99.90;;;;;;4920115;29;20048;-84
2023/01/27 04:09:38;;;;;;;10.27;3.47;;;3.60;99.90;;;;;;4937496;29;20130;-84
2023/01/27 04:12:06;;;;;;;9.80;3.53;;;3.50;99.90;;;;;;4937379;29;20048;-84
2023/01/27 04:14:40;;;;;;;10.40;3.47;;;3.60;99.90;;;;;;4936859;29;20485;-85
2023/01/27 04:17:10;;;;;;;9.53;3.87;;;3.60;99.90;;;;;;4937405;29;20237;-84
2023/01/27 04:19:36;;;;;;;7.77;3.40;;;3.60;99.90;;;;;;4937219;29;20511;-84
2023/01/27 04:22:02;;;;;;;8.43;3.40;;;3.50;99.90;;;;;;4936685;29;20078;-85
2023/01/27 04:24:28;;;;;;;9.13;3.60;;;3.50;99.90;;;;;;4920238;29;20103;-84
2023/01/27 04:27:02;;;;;;;8.87;3.90;;;3.50;99.90;;;;;;4937142;29;20079;-84
2023/01/27 04:29:36;;;;;;;8.63;3.40;;;3.50;99.90;;;;;;4919127;29;20087;-84
2023/01/27 04:32:04;;;;;;;10.03;3.60;;;3.50;99.90;;;;;;4937055;29;20044;-84
2023/01/27 04:34:31;;;;;;;8.30;3.80;;;3.50;99.90;;;;;;4919463;29;20122;-85
2023/01/27 04:36:57;;;;;;;10.23;3.57;;;3.50;99.90;;;;;;4919764;29;20134;-84
2023/01/27 04:39:23;;;;;;;9.50;3.97;;;3.50;99.90;;;;;;4920428;29;20492;-84
2023/01/27 04:41:50;;;;;;;8.63;3.90;;;3.50;99.90;;;;;;4918977;29;20051;-85
2023/01/27 04:44:16;;;;;;;9.07;3.97;;;3.40;99.90;;;;;;4937154;29;20055;-85
2023/01/27 04:46:41;;;;;;;9.07;4.30;;;3.40;99.90;;;;;;4919922;29;20117;-85
2023/01/27 04:49:07;;;;;;;11.30;4.07;;;3.40;99.90;;;;;;4935951;29;20048;-85
2023/01/27 04:51:33;;;;;;;10.00;4.07;;;3.40;99.90;;;;;;4919832;29;20109;-85
2023/01/27 04:53:59;;;;;;;10.10;3.90;;;3.40;99.90;;;;;;4919613;29;20090;-84
2023/01/27 04:56:30;;;;;;;8.73;3.63;;;4.90;99.90;;;;;;4919300;29;20059;-84
2023/01/27 04:59:01;;;;;;;9.03;3.50;;;3.40;99.90;;;;;;4919141;29;20087;-85
2023/01/27 05:01:28;;;;;;;8.43;3.60;;;3.40;99.90;;;;;;4933985;29;20427;-85
2023/01/27 05:03:54;;;;;;;8.73;3.30;;;3.40;99.90;;;;;;4918609;29;20385;-85
2023/01/27 05:06:20;;;;;;;8.07;3.23;;;3.40;99.90;;;;;;4919522;29;20043;-85
2023/01/27 05:08:46;;;;;;;9.03;3.40;;;3.40;99.90;;;;;;4936297;29;20047;-85
2023/01/27 05:11:12;;;;;;;8.17;3.33;;;3.40;99.90;;;;;;4935785;29;20047;-85
2023/01/27 05:13:39;;;;;;;7.73;2.87;;;3.30;99.90;;;;;;4936412;29;20048;-85
2023/01/27 05:16:11;;;;;;;7.80;2.60;;;3.40;99.90;;;;;;4919142;29;20058;-85
2023/01/27 05:18:37;;;;;;;6.97;2.80;;;4.60;99.90;;;;;;4935836;29;20051;-84
2023/01/27 05:21:07;;;;;;;8.03;2.80;;;3.30;99.90;;;;;;4935843;29;20048;-85
2023/01/27 05:23:36;;;;;;;7.93;2.80;;;4.20;99.90;;;;;;4918496;29;20047;-85
2023/01/27 05:26:16;;;;;;;8.03;2.70;;;3.40;99.90;;;;;;4922138;29;20052;-85
2023/01/27 05:28:45;;;;;;;8.60;2.70;;;3.40;99.90;;;;;;4936766;29;20123;-84
2023/01/27 05:31:28;;;;;;;7.73;2.63;;;3.40;99.90;;;;;;4935273;29;20499;-85
2023/01/27 05:33:55;;;;;;;7.45;2.67;;;3.30;99.90;;;;;;4921209;29;20043;-85
2023/01/27 05:36:22;;;;;;;9.27;2.80;;;3.30;99.90;;;;;;4936688;29;20063;-85
2023/01/27 05:38:48;;;;;;;7.97;2.70;;;3.30;99.90;;;;;;4918133;29;20138;-85
2023/01/27 05:41:16;;;;;;;7.43;2.43;;;3.30;99.90;;;;;;4936372;29;20385;-85
2023/01/27 05:43:44;;;;;;;7.70;2.80;;;3.20;99.90;;;;;;4918993;29;20044;-85
2023/01/27 05:46:12;;;;;;;9.90;2.83;;;3.20;99.90;;;;;;4918512;29;20563;-84
2023/01/27 05:48:43;;;;;;;7.70;2.60;;;3.20;99.90;;;;;;4919205;29;20051;-85
2023/01/27 05:51:09;;;;;;;8.40;2.60;;;3.20;99.90;;;;;;4911981;23;20151;-85
2023/01/27 05:53:35;;;;;;;10.47;3.10;;;3.20;99.90;;;;;;4899383;29;20044;-85
2023/01/27 05:56:01;;;;;;;8.57;2.83;;;3.20;99.90;;;;;;4900299;29;20147;-85
2023/01/27 05:58:27;;;;;;;8.90;2.87;;;3.20;99.90;;;;;;4899862;29;20048;-85
2023/01/27 06:00:54;;;;;;;8.90;3.43;;;3.20;99.90;;;;;;4916055;29;20040;-85
2023/01/27 06:03:20;;;;;;;9.23;3.00;;;3.20;99.90;;;;;;4900029;29;20072;-85
2023/01/27 06:05:56;;;;;;;8.93;3.13;;;3.20;99.90;;;;;;4916105;29;20094;-85
2023/01/27 06:08:25;;;;;;;9.73;3.10;;;3.10;99.90;;;;;;4916979;29;20037;-85
2023/01/27 06:10:52;;;;;;;8.50;3.00;;;3.10;99.90;;;;;;4916478;29;20036;-85
2023/01/27 06:13:20;;;;;;;9.27;3.13;;;3.10;99.90;;;;;;4899264;29;20040;-85
2023/01/27 06:15:47;;;;;;;8.53;2.97;;;3.10;99.90;;;;;;4899513;29;20044;-85
2023/01/27 06:18:14;;;;;;;8.87;2.90;;;3.00;99.90;;;;;;4915936;29;20052;-85
2023/01/27 06:20:40;;;;;;;9.57;3.00;;;3.00;99.90;;;;;;4898576;29;20055;-84
2023/01/27 06:23:10;;;;;;;9.40;3.53;;;3.00;99.90;;;;;;4899216;29;20048;-85
2023/01/27 06:25:38;;;;;;;8.13;2.80;;;3.00;99.90;;;;;;4917205;29;20037;-86
2023/01/27 06:28:05;;;;;;;8.63;3.27;;;3.00;99.90;;;;;;4909039;29;20032;-84
2023/01/27 06:30:33;;;;;;;10.23;3.23;;;3.00;99.90;;;;;;4933394;29;20050;-81
2023/01/27 06:32:59;;;;;;;9.57;3.17;;;3.00;99.90;;;;;;4905289;29;20048;-81
2023/01/27 06:35:24;;;;;;;8.57;3.13;;;3.00;99.90;;;;;;4915758;29;20119;-82
2023/01/27 06:37:50;;;;;;;9.40;3.40;;;3.00;99.90;;;;;;4898947;29;20091;-82
2023/01/27 06:40:16;;;;;;;10.83;3.60;;;3.00;99.90;;;;;;4899510;29;20044;-82
2023/01/27 06:42:43;;;;;;;9.60;3.67;;;3.00;99.90;;;;;;4898940;29;20111;-85
2023/01/27 06:45:10;;;;;;;9.90;3.30;;;3.00;99.90;;;;;;4899051;29;20131;-84
2023/01/27 06:47:37;;;;;;;10.47;3.90;;;3.00;99.90;;;;;;4915887;29;20050;-84
2023/01/27 06:50:03;;;;;;;9.27;3.80;;;2.90;99.90;;;;;;4898051;29;20067;-84
2023/01/27 06:52:29;;;;;;;8.93;3.50;;;3.00;99.90;;;;;;4916129;29;20056;-84
2023/01/27 06:54:54;;;;;;;10.60;3.43;;;3.00;99.90;;;;;;4918721;29;20099;-82
2023/01/27 06:57:20;;;;;;;10.27;3.90;;;2.90;99.90;;;;;;4919030;29;20056;-84
2023/01/27 06:59:46;;;;;;;10.43;3.80;;;3.00;99.90;;;;;;4920256;29;20048;-82
2023/01/27 07:02:12;;;;;;;12.13;4.47;;;2.90;99.90;;;;;;4907962;29;20060;-81
2023/01/27 07:04:38;;;;;;;10.77;4.33;;;2.90;99.90;;;;;;4903254;29;20056;-80
2023/01/27 07:07:03;;;;;;;10.17;4.10;;;2.90;99.90;;;;;;4919303;29;20047;-80
2023/01/27 07:09:29;;;;;;;12.23;3.77;;;2.80;99.90;;;;;;4903944;29;20048;-81
2023/01/27 07:11:54;;;;;;;10.70;4.23;;;2.80;99.90;;;;;;4901944;29;20044;-80
2023/01/27 07:14:20;;;;;;;11.57;4.40;;;2.80;99.90;;;;;;4902362;29;20139;-80
2023/01/27 07:16:46;;;;;;;9.60;3.97;;;2.70;99.90;;;;;;4917813;29;20048;-80
2023/01/27 07:19:12;;;;;;;9.93;4.27;;;2.80;99.90;;;;;;4901853;29;20060;-81
2023/01/27 07:21:38;;;;;;;13.30;4.80;;;2.80;99.90;;;;;;4918943;29;20047;-80
2023/01/27 07:24:04;;;;;;;11.03;4.40;;;2.80;99.90;;;;;;4901127;29;20123;-81
2023/01/27 07:26:30;;;;;;;10.53;4.90;;;2.90;99.90;;;;;;4901700;29;20036;-81
2023/01/27 07:28:56;;;;;;;11.67;5.17;;;2.90;99.90;;;;;;4918844;29;20107;-81
2023/01/27 07:31:21;;;;;;;13.67;4.90;;;2.90;99.90;;;;;;4899885;29;20051;-81
2023/01/27 07:33:47;;;;;;;13.23;5.40;;;2.90;99.90;;;;;;4918437;29;20437;-81
2023/01/27 07:36:13;;;;;;;11.70;4.67;;;2.90;99.90;;;;;;4901789;29;20106;-80
2023/01/27 07:38:38;;;;;;;11.47;4.70;;;2.90;99.90;;;;;;4901023;29;20040;-81
2023/01/27 07:41:05;;;;;;;11.93;4.73;;;3.30;99.90;;;;;;4906999;29;20378;-82
2023/01/27 07:43:34;;;;;;;14.07;5.70;;;2.90;99.90;;;;;;4918546;29;20127;-83
2023/01/27 07:45:59;;;;;;;12.73;5.47;;;2.90;99.90;;;;;;4900351;29;20054;-82
2023/01/27 07:48:27;;;;;;;12.33;5.20;;;2.90;99.90;;;;;;4918721;29;20044;-82
2023/01/27 07:50:53;;;;;;;11.57;5.77;;;2.90;99.90;;;;;;4900923;29;20135;-82
2023/01/27 07:53:18;;;;;;;12.13;5.40;;;2.90;99.90;;;;;;4917321;29;20127;-81
2023/01/27 07:55:44;;;;;;;13.67;5.87;;;2.90;99.90;;;;;;4918044;29;20040;-82
2023/01/27 07:58:10;;;;;;;13.87;6.37;;;2.90;99.90;;;;;;4917740;29;20040;-81
2023/01/27 08:00:35;;;;;;;13.50;5.93;;;3.00;99.90;;;;;;4917472;29;20040;-82
2023/01/27 08:03:02;;;;;;;12.53;6.03;;;3.00;99.90;;;;;;4918005;29;20048;-81
2023/01/27 08:05:31;;;;;;;13.30;6.00;;;3.00;99.90;;;;;;4915813;29;20044;-82
2023/01/27 08:07:57;;;;;;;12.43;5.40;;;3.00;99.90;;;;;;4900614;29;20082;-81
2023/01/27 08:10:23;;;;;;;13.60;6.17;;;3.00;99.90;;;;;;4918162;29;20123;-82
2023/01/27 08:12:48;;;;;;;15.03;6.53;;;3.00;99.90;;;;;;4900053;29;20195;-82
2023/01/27 08:15:14;;;;;;;14.13;6.50;;;3.00;99.90;;;;;;4901032;29;20051;-81
2023/01/27 08:17:40;;;;;;;12.80;5.77;;;3.10;99.90;;;;;;4917665;29;20083;-82
2023/01/27 08:20:07;;;;;;;12.60;5.47;;;3.10;99.90;;;;;;4917107;29;20417;-82
2023/01/27 08:22:32;;;;;;;13.60;6.60;;;3.10;99.90;;;;;;4917903;29;20081;-81
2023/01/27 08:24:58;;;;;;;13.10;6.10;;;3.20;99.90;;;;;;4917506;29;20075;-81
2023/01/27 08:27:23;;;;;;;14.87;6.33;;;3.20;99.90;;;;;;4916806;29;20059;-81
2023/01/27 08:29:49;;;;;;;14.50;6.00;;;3.10;99.90;;;;;;4899980;29;20044;-81
2023/01/27 08:32:15;;;;;;;13.47;6.17;;;3.20;99.90;;;;;;4897014;29;20441;-81
2023/01/27 08:34:40;;;;;;;12.97;5.87;;;3.20;99.90;;;;;;4915258;29;20040;-81
2023/01/27 08:37:09;;;;;;;12.27;5.40;;;4.10;99.90;;;;;;4899877;29;20586;-81
2023/01/27 08:42:10;;;;;;;16.10;5.97;;;3.30;99.90;;;;;;5466275;23;20064;-81
2023/01/27 08:44:39;;;;;;;13.07;5.80;;;3.80;99.90;;;;;;4900722;29;20087;-81
2023/01/27 08:47:08;;;;;;;12.57;5.67;;;3.20;99.90;;;;;;4903073;29;20092;-81
2023/01/27 08:49:34;;;;;;;12.20;5.77;;;3.10;99.90;;;;;;4900567;29;20146;-81
2023/01/27 08:52:16;;;;;;;13.23;5.83;;;4.00;99.90;;;;;;4899705;29;20138;-82
2023/01/27 08:55:00;;;;;;;13.33;5.93;;;3.00;99.90;;;;;;4899548;29;20083;-81
2023/01/27 08:57:46;;;;;;;13.67;5.90;;;3.20;99.90;;;;;;4904741;29;20083;-82
2023/01/27 09:00:21;;;;;;;13.10;6.03;;;3.30;99.90;;;;;;4899705;29;20037;-82
2023/01/27 09:03:05;;;;;;;14.87;5.87;;;3.30;99.90;;;;;;4899468;29;20103;-81
2023/01/27 09:05:48;;;;;;;13.48;5.90;;;3.40;99.90;;;;;;4910993;23;20047;-81
2023/01/27 09:08:30;;;;;;;12.43;5.83;;;3.00;99.90;;;;;;4897626;29;20394;-81
2023/01/27 09:11:10;;;;;;;12.90;5.57;;;5.10;99.90;;;;;;4880085;29;20485;-81
2023/01/27 09:17:27;;;;;;;12.93;6.47;;;2.80;99.90;;;;;;4839184;29;20057;-81
2023/01/27 09:19:53;;;;;;;10.70;5.40;;;2.70;99.90;;;;;;4861380;23;20056;-81
2023/01/27 09:22:19;;;;;;;12.60;5.03;;;4.20;99.90;;;;;;4916537;29;20059;-82
2023/01/27 09:24:44;;;;;;;10.23;5.03;;;3.10;99.90;;;;;;4898716;29;20040;-81
2023/01/27 09:27:10;;;;;;;12.90;5.33;;;3.30;99.90;;;;;;4898908;29;20071;-81
2023/01/27 09:29:36;;;;;;;12.57;5.20;;;3.30;99.90;;;;;;4899336;29;20036;-81
2023/01/27 09:32:02;;;;;;;12.60;5.73;;;3.30;99.90;;;;;;4915768;29;20044;-81
2023/01/27 09:34:29;;;;;;;13.77;5.60;;;4.20;99.90;;;;;;4899363;29;20100;-81
2023/01/27 09:37:07;;;;;;;10.90;5.30;;;3.40;99.90;;;;;;4915538;29;20104;-82
2023/01/27 09:39:42;;;;;;;12.83;5.77;;;3.40;99.90;;;;;;4916997;29;20055;-81
2023/01/27 09:42:35;;;;;;;11.90;5.77;;;3.40;99.90;;;;;;5130428;23;20075;-81
2023/01/27 09:57:33;;;;;;;11.80;5.50;;;4.70;99.90;;;;;;4908701;29;20072;-81
2023/01/27 10:00:36;;;;;;;;;;;;;;;;;;;;;
2023/01/27 10:03:21;;;;;;;12.37;5.63;;;3.40;99.90;;;;;;4915032;29;20071;-81
2023/01/27 10:06:02;;;;;;;11.17;5.40;;;3.40;99.90;;;;;;4915211;29;20052;-81
2023/01/27 10:08:44;;;;;;;11.37;4.73;;;3.40;99.90;;;;;;4898474;29;20055;-81
2023/01/27 10:11:37;;;;;;;12.07;5.40;;;3.40;99.90;;;;;;4898049;29;20512;-81
2023/01/27 10:14:24;;;;;;;11.97;5.00;;;3.40;99.90;;;;;;4904665;29;20082;-81
2023/01/27 10:17:08;;;;;;;10.77;5.07;;;3.40;99.90;;;;;;4919602;29;20044;-82
2023/01/27 10:19:49;;;;;;;11.97;5.30;;;3.40;99.90;;;;;;4897932;29;20056;-82
2023/01/27 10:22:23;;;;;;;11.13;5.20;;;3.40;99.90;;;;;;4899261;29;20400;-82
2023/01/27 10:25:01;;;;;;;10.57;4.93;;;3.50;99.90;;;;;;4917557;29;20044;-82
2023/01/27 10:27:34;;;;;;;11.00;4.73;;;3.40;99.90;;;;;;4938829;23;20454;-81
2023/01/27 10:30:07;;;;;;;11.93;4.70;;;3.40;99.90;;;;;;4902462;29;20413;-80
2023/01/27 10:32:40;;;;;;;10.60;4.50;;;3.50;99.90;;;;;;4902863;29;20059;-81
2023/01/27 10:35:21;;;;;;;11.57;4.53;;;3.50;99.90;;;;;;4918676;29;20079;-81
2023/01/27 10:38:19;;;;;;;9.90;4.63;;;3.50;99.90;;;;;;4901685;29;20135;-81
2023/01/27 10:41:23;;;;;;;10.50;4.60;;;3.50;99.90;;;;;;4869520;23;20071;-81
2023/01/27 10:44:27;;;;;;;11.17;4.17;;;3.50;99.90;;;;;;4902189;29;20060;-81
2023/01/27 10:47:14;;;;;;;10.95;4.65;;;5.00;99.90;;;;;;4862668;29;20068;-81
2023/01/27 10:50:34;;;;;;;9.30;4.50;;;3.50;99.90;;;;;;4902586;29;20139;-81
2023/01/27 10:53:35;;;;;;;10.00;4.37;;;3.80;99.90;;;;;;4897603;29;20126;-81
2023/01/27 10:56:28;;;;;;;10.70;4.23;;;3.80;99.90;;;;;;4907452;29;20047;-81
2023/01/27 10:59:22;;;;;;;9.83;4.10;;;3.70;99.90;;;;;;4905250;29;20048;-81
2023/01/27 11:01:54;;;;;;;9.90;4.00;;;3.70;99.90;;;;;;4918033;29;20087;-81
2023/01/27 11:04:40;;;;;;;9.13;3.70;;;3.80;99.90;;;;;;4919146;29;20043;-82
2023/01/27 11:07:06;;;;;;;9.70;3.90;;;3.90;99.90;;;;;;4900624;29;20052;-81
2023/01/27 11:09:47;;;;;;;8.77;3.37;;;3.90;99.90;;;;;;4900940;29;20067;-81
2023/01/27 11:12:14;;;;;;;10.57;4.13;;;3.90;99.90;;;;;;4902230;29;20040;-81
2023/01/27 11:14:48;;;;;;;9.70;4.03;;;4.00;99.90;;;;;;4919009;29;20048;-81
2023/01/27 11:17:23;;;;;;;;;;;4.40;99.90;;;;;;4898102;29;20478;-81
2023/01/27 11:20:03;;;;;;;9.53;3.73;;;4.00;99.90;;;;;;4898529;29;19923;-81
2023/01/27 11:22:58;;;;;;;10.80;4.20;;;4.10;99.90;;;;;;4882621;29;20493;-81
2023/01/27 11:25:27;;;;;;;9.47;3.80;;;4.10;99.90;;;;;;4900069;29;20055;-81
2023/01/27 11:28:12;;;;;;;8.60;3.80;;;4.10;99.90;;;;;;4883151;29;20045;-81
2023/01/27 11:30:47;;;;;;;9.10;3.77;;;4.10;99.90;;;;;;4882800;29;20052;-81
2023/01/27 11:33:28;;;;;;;9.67;3.70;;;4.10;99.90;;;;;;4883212;29;20048;-81
2023/01/27 11:35:54;;;;;;;9.07;3.70;;;4.00;99.90;;;;;;4923218;23;20116;-81
2023/01/27 11:38:21;;;;;;;9.27;3.70;;;4.10;99.90;;;;;;4901247;29;20048;-81
2023/01/27 11:40:50;;;;;;;10.00;3.73;;;4.10;99.90;;;;;;4912915;23;20108;-81
2023/01/27 11:43:22;;;;;;;10.27;3.70;;;4.10;99.90;;;;;;4901598;29;20056;-82
2023/01/27 11:45:51;;;;;;;9.53;4.07;;;4.10;99.90;;;;;;4887721;29;20056;-81
2023/01/27 11:48:19;;;;;;;9.13;3.80;;;4.00;99.90;;;;;;4883173;29;20461;-82
2023/01/27 11:50:45;;;;;;;10.00;3.40;;;4.10;99.90;;;;;;4886978;29;20063;-81
2023/01/27 11:53:28;;;;;;;9.83;4.00;;;4.00;99.90;;;;;;4883585;29;20401;-82
2023/01/27 11:56:02;;;;;;;9.40;3.77;;;4.70;99.90;;;;;;4899924;29;20119;-81
2023/01/27 11:58:32;;;;;;;;;;;4.00;99.90;;;;;;4886283;29;20055;-81
2023/01/27 12:01:02;;;;;;;7.83;3.10;;;3.90;99.90;;;;;;4902150;29;19923;-81
2023/01/27 12:03:50;;;;;;;10.43;3.50;;;4.00;99.90;;;;;;4883051;29;20072;-80
2023/01/27 12:06:55;;;;;;;8.40;3.57;;;4.00;99.90;;;;;;4882279;29;20052;-81
2023/01/27 12:09:36;;;;;;;8.97;3.47;;;4.80;99.90;;;;;;4893607;29;20056;-80
2023/01/27 12:12:17;;;;;;;8.20;3.43;;;3.90;99.90;;;;;;4900266;29;20044;-81
2023/01/27 12:14:47;;;;;;;8.87;3.27;;;3.90;99.90;;;;;;4901401;29;20091;-81
2023/01/27 12:17:22;;;;;;;8.43;3.20;;;3.90;99.90;;;;;;4901856;29;20400;-81
2023/01/27 12:19:48;;;;;;;8.40;3.27;;;3.90;99.90;;;;;;4906915;23;20062;-81
2023/01/27 12:22:31;;;;;;;8.47;3.60;;;3.90;99.90;;;;;;4900716;29;20126;-81
2023/01/27 12:25:01;;;;;;;7.63;2.75;;;3.90;99.90;;;;;;4917992;29;20119;-81
2023/01/27 12:27:29;;;;;;;7.40;3.00;;;3.90;99.90;;;;;;4917983;29;20128;-82
2023/01/27 12:30:01;;;;;;;8.03;2.97;;;3.90;99.90;;;;;;4900838;29;20050;-81
2023/01/27 12:32:33;;;;;;;8.07;3.07;;;3.70;99.90;;;;;;4900936;29;20041;-82
2023/01/27 12:35:02;;;;;;;9.87;3.07;;;3.90;99.90;;;;;;4900140;29;20052;-81
2023/01/27 12:37:37;;;;;;;7.27;2.77;;;3.90;99.90;;;;;;4901671;29;20047;-82
2023/01/27 12:40:06;;;;;;;7.43;2.93;;;3.90;99.90;;;;;;4899752;29;20055;-81
2023/01/27 12:42:46;;;;;;;8.73;3.10;;;3.90;99.90;;;;;;4901178;29;20067;-82
2023/01/27 12:45:30;;;;;;;8.20;3.13;;;3.90;99.90;;;;;;4900989;29;20055;-81
2023/01/27 12:48:03;;;;;;;9.48;3.20;;;3.90;99.90;;;;;;4900230;29;20064;-81
2023/01/27 12:50:34;;;;;;;10.77;3.72;;;3.90;99.90;;;;;;4900367;29;20083;-81
2023/01/27 12:53:07;;;;;;;8.60;3.77;;;3.90;99.90;;;;;;4898486;29;20041;-81
2023/01/27 12:55:41;;;;;;;9.67;3.70;;;3.90;99.90;;;;;;4916344;29;20103;-81
2023/01/27 12:58:29;;;;;;;8.70;3.33;;;3.90;99.90;;;;;;4881905;29;20061;-81
2023/01/27 13:00:56;;;;;;;8.13;3.40;;;3.90;99.90;;;;;;4913693;29;20481;-81
2023/01/27 13:03:22;;;;;;;8.10;3.57;;;3.90;99.90;;;;;;4917102;29;20127;-82
2023/01/27 13:05:54;;;;;;;8.23;3.47;;;3.90;99.90;;;;;;4916694;29;20051;-82
2023/01/27 13:08:21;;;;;;;7.77;3.10;;;3.90;99.90;;;;;;4916107;29;20390;-81
2023/01/27 13:10:59;;;;;;;8.10;3.37;;;3.90;99.90;;;;;;4899880;29;20059;-82
2023/01/27 13:13:30;;;;;;;8.60;3.63;;;3.90;99.90;;;;;;4900343;29;20047;-81
2023/01/27 13:16:15;;;;;;;7.93;3.20;;;3.90;99.90;;;;;;4916435;29;20036;-81
2023/01/27 13:18:41;;;;;;;8.03;3.20;;;3.90;99.90;;;;;;4916623;29;20064;-81
2023/01/27 13:21:11;;;;;;;8.60;4.00;;;3.90;99.90;;;;;;4916683;29;20063;-81
2023/01/27 13:23:39;;;;;;;7.27;2.50;;;3.90;99.90;;;;;;4899416;29;20067;-81
2023/01/27 13:26:07;;;;;;;6.47;2.33;;;3.90;99.90;;;;;;4920978;29;20058;-81
2023/01/27 13:28:48;;;;;;;7.37;2.43;;;3.90;99.90;;;;;;4900342;29;20052;-81
2023/01/27 13:31:32;;;;;;;6.80;2.40;;;3.90;99.90;;;;;;4914751;29;20095;-81
2023/01/27 13:34:14;;;;;;;6.75;2.40;;;3.90;99.90;;;;;;4900342;29;20052;-81
2023/01/27 13:36:46;;;;;;;6.53;2.20;;;3.90;99.90;;;;;;4916117;29;20039;-82
2023/01/27 13:39:24;;;;;;;6.77;2.33;;;3.90;99.90;;;;;;4894210;29;20104;-81
2023/01/27 13:42:26;;;;;;;7.43;2.30;;;3.90;99.90;;;;;;4887451;29;20055;-82
2023/01/27 13:45:04;;;;;;;7.37;2.70;;;3.80;99.90;;;;;;4898424;29;20135;-80
2023/01/27 13:47:39;;;;;;;7.33;2.40;;;3.80;99.90;;;;;;4917253;29;20055;-81
2023/01/27 13:50:25;;;;;;;7.07;2.73;;;3.80;99.90;;;;;;4915530;29;20052;-81
2023/01/27 13:52:54;;;;;;;7.77;2.70;;;3.80;99.90;;;;;;4916548;29;20099;-81
2023/01/27 13:55:34;;;;;;;7.07;2.33;;;3.80;99.90;;;;;;4899658;29;20056;-81
2023/01/27 13:58:05;;;;;;;7.57;2.40;;;3.80;99.90;;;;;;4915957;29;20052;-81